sensor_id;sensor_type;location;lat;lon;timestamp;P1;durP1;ratioP1;P2;durP2;ratioP2
42846;SDS011;28495;49.916;14.536;2023-04-15T00:02:31;1.55;;;1.00;;
42846;SDS011;28495;49.916;14.536;2023-04-15T00:07:52;2.88;;;1.30;;
42846;SDS011;28495;49.916;14.536;2023-04-15T00:13:13;1.10;;;1.00;;
42846;SDS011;28495;49.916;14.536;2023-04-15T00:18:35;1.00;;;1.00;;
42846;SDS011;28495;49.916;14.536;2023-04-15T00:23:56;1.00;;;0.90;;
42846;SDS011;28495;49.916;14.536;2023-04-15T00:29:17;1.30;;;1.20;;
42846;SDS011;28495;49.916;14.536;2023-04-15T00:34:38;1.42;;;1.13;;
42846;SDS011;28495;49.916;14.536;2023-04-15T00:40:00;0.70;;;0.70;;
42846;SDS011;28495;49.916;14.536;2023-04-15T00:45:21;1.17;;;1.08;;
42846;SDS011;28495;49.916;14.536;2023-04-15T00:50:42;1.65;;;0.80;;
42846;SDS011;28495;49.916;14.536;2023-04-15T00:56:03;1.90;;;0.80;;
42846;SDS011;28495;49.916;14.536;2023-04-15T01:01:25;2.25;;;0.80;;
42846;SDS011;28495;49.916;14.536;2023-04-15T01:06:46;0.77;;;0.77;;
42846;SDS011;28495;49.916;14.536;2023-04-15T01:12:11;0.68;;;0.68;;
42846;SDS011;28495;49.916;14.536;2023-04-15T01:17:34;0.80;;;0.50;;
42846;SDS011;28495;49.916;14.536;2023-04-15T01:22:59;0.70;;;0.70;;
42846;SDS011;28495;49.916;14.536;2023-04-15T01:28:20;0.80;;;0.80;;
42846;SDS011;28495;49.916;14.536;2023-04-15T01:33:41;0.57;;;0.57;;
42846;SDS011;28495;49.916;14.536;2023-04-15T01:39:02;0.60;;;0.60;;
42846;SDS011;28495;49.916;14.536;2023-04-15T01:44:25;0.30;;;0.30;;
42846;SDS011;28495;49.916;14.536;2023-04-15T01:49:45;0.60;;;0.60;;
42846;SDS011;28495;49.916;14.536;2023-04-15T01:55:07;0.38;;;0.38;;
42846;SDS011;28495;49.916;14.536;2023-04-15T02:00:28;0.30;;;0.30;;
42846;SDS011;28495;49.916;14.536;2023-04-15T02:05:50;0.40;;;0.40;;
42846;SDS011;28495;49.916;14.536;2023-04-15T02:11:11;0.40;;;0.40;;
42846;SDS011;28495;49.916;14.536;2023-04-15T02:16:32;0.50;;;0.50;;
42846;SDS011;28495;49.916;14.536;2023-04-15T02:21:53;0.50;;;0.50;;
42846;SDS011;28495;49.916;14.536;2023-04-15T02:27:14;0.70;;;0.70;;
42846;SDS011;28495;49.916;14.536;2023-04-15T02:32:37;0.60;;;0.60;;
42846;SDS011;28495;49.916;14.536;2023-04-15T02:37:58;0.52;;;0.50;;
42846;SDS011;28495;49.916;14.536;2023-04-15T02:43:20;1.25;;;0.70;;
42846;SDS011;28495;49.916;14.536;2023-04-15T02:48:43;0.88;;;0.55;;
42846;SDS011;28495;49.916;14.536;2023-04-15T02:54:04;0.50;;;0.50;;
42846;SDS011;28495;49.916;14.536;2023-04-15T02:59:25;0.65;;;0.65;;
42846;SDS011;28495;49.916;14.536;2023-04-15T03:04:46;0.70;;;0.70;;
42846;SDS011;28495;49.916;14.536;2023-04-15T03:10:07;0.82;;;0.82;;
42846;SDS011;28495;49.916;14.536;2023-04-15T03:15:29;0.70;;;0.70;;
42846;SDS011;28495;49.916;14.536;2023-04-15T03:20:50;0.70;;;0.70;;
42846;SDS011;28495;49.916;14.536;2023-04-15T03:26:22;0.55;;;0.55;;
42846;SDS011;28495;49.916;14.536;2023-04-15T03:31:54;0.88;;;0.88;;
42846;SDS011;28495;49.916;14.536;2023-04-15T03:37:15;0.85;;;0.85;;
42846;SDS011;28495;49.916;14.536;2023-04-15T03:42:36;3.28;;;2.60;;
42846;SDS011;28495;49.916;14.536;2023-04-15T03:47:57;7.88;;;5.13;;
42846;SDS011;28495;49.916;14.536;2023-04-15T03:53:35;5.50;;;3.92;;
42846;SDS011;28495;49.916;14.536;2023-04-15T03:58:56;5.35;;;4.30;;
42846;SDS011;28495;49.916;14.536;2023-04-15T04:04:17;4.28;;;3.88;;
42846;SDS011;28495;49.916;14.536;2023-04-15T04:09:37;5.30;;;3.28;;
42846;SDS011;28495;49.916;14.536;2023-04-15T04:14:59;5.70;;;3.35;;
42846;SDS011;28495;49.916;14.536;2023-04-15T04:20:21;3.55;;;2.92;;
42846;SDS011;28495;49.916;14.536;2023-04-15T04:25:41;3.65;;;2.53;;
42846;SDS011;28495;49.916;14.536;2023-04-15T04:31:03;3.38;;;2.80;;
42846;SDS011;28495;49.916;14.536;2023-04-15T04:36:23;5.60;;;3.40;;
42846;SDS011;28495;49.916;14.536;2023-04-15T04:41:44;2.38;;;1.92;;
42846;SDS011;28495;49.916;14.536;2023-04-15T04:47:05;3.05;;;2.42;;
42846;SDS011;28495;49.916;14.536;2023-04-15T04:52:27;2.55;;;2.03;;
42846;SDS011;28495;49.916;14.536;2023-04-15T04:57:47;4.93;;;3.00;;
42846;SDS011;28495;49.916;14.536;2023-04-15T05:03:08;3.30;;;2.30;;
42846;SDS011;28495;49.916;14.536;2023-04-15T05:08:29;3.15;;;2.60;;
42846;SDS011;28495;49.916;14.536;2023-04-15T05:13:50;2.95;;;2.05;;
42846;SDS011;28495;49.916;14.536;2023-04-15T05:19:11;2.15;;;1.88;;
42846;SDS011;28495;49.916;14.536;2023-04-15T05:24:32;2.30;;;1.77;;
42846;SDS011;28495;49.916;14.536;2023-04-15T05:29:53;2.35;;;1.70;;
42846;SDS011;28495;49.916;14.536;2023-04-15T05:35:13;2.63;;;2.10;;
42846;SDS011;28495;49.916;14.536;2023-04-15T05:40:34;3.70;;;3.00;;
42846;SDS011;28495;49.916;14.536;2023-04-15T05:45:56;3.53;;;2.40;;
42846;SDS011;28495;49.916;14.536;2023-04-15T05:51:17;2.33;;;2.13;;
42846;SDS011;28495;49.916;14.536;2023-04-15T05:56:37;2.05;;;1.83;;
42846;SDS011;28495;49.916;14.536;2023-04-15T06:01:58;2.53;;;2.15;;
42846;SDS011;28495;49.916;14.536;2023-04-15T06:07:19;3.03;;;2.47;;
42846;SDS011;28495;49.916;14.536;2023-04-15T06:12:40;2.58;;;1.70;;
42846;SDS011;28495;49.916;14.536;2023-04-15T06:18:01;2.67;;;1.88;;
42846;SDS011;28495;49.916;14.536;2023-04-15T06:23:22;2.15;;;1.90;;
42846;SDS011;28495;49.916;14.536;2023-04-15T06:28:45;2.55;;;2.10;;
42846;SDS011;28495;49.916;14.536;2023-04-15T06:34:06;1.70;;;1.60;;
42846;SDS011;28495;49.916;14.536;2023-04-15T06:39:27;6.13;;;3.92;;
42846;SDS011;28495;49.916;14.536;2023-04-15T06:44:48;1.60;;;1.50;;
42846;SDS011;28495;49.916;14.536;2023-04-15T06:50:09;1.85;;;1.52;;
42846;SDS011;28495;49.916;14.536;2023-04-15T06:55:30;1.65;;;1.10;;
42846;SDS011;28495;49.916;14.536;2023-04-15T07:00:51;1.45;;;1.17;;
42846;SDS011;28495;49.916;14.536;2023-04-15T07:06:12;2.13;;;1.10;;
42846;SDS011;28495;49.916;14.536;2023-04-15T07:11:33;0.95;;;0.65;;
42846;SDS011;28495;49.916;14.536;2023-04-15T07:16:54;0.40;;;0.40;;
42846;SDS011;28495;49.916;14.536;2023-04-15T07:22:15;0.70;;;0.57;;
42846;SDS011;28495;49.916;14.536;2023-04-15T07:27:36;0.90;;;0.60;;
42846;SDS011;28495;49.916;14.536;2023-04-15T07:32:57;0.60;;;0.60;;
42846;SDS011;28495;49.916;14.536;2023-04-15T07:38:18;1.42;;;0.70;;
42846;SDS011;28495;49.916;14.536;2023-04-15T07:43:39;1.00;;;0.90;;
42846;SDS011;28495;49.916;14.536;2023-04-15T07:49:00;0.65;;;0.60;;
42846;SDS011;28495;49.916;14.536;2023-04-15T07:54:22;0.63;;;0.63;;
42846;SDS011;28495;49.916;14.536;2023-04-15T07:59:42;0.40;;;0.40;;
42846;SDS011;28495;49.916;14.536;2023-04-15T08:05:03;0.70;;;0.70;;
42846;SDS011;28495;49.916;14.536;2023-04-15T08:10:24;0.70;;;0.70;;
42846;SDS011;28495;49.916;14.536;2023-04-15T08:15:52;1.15;;;1.02;;
42846;SDS011;28495;49.916;14.536;2023-04-15T08:21:32;0.65;;;0.65;;
42846;SDS011;28495;49.916;14.536;2023-04-15T08:26:54;0.98;;;0.70;;
42846;SDS011;28495;49.916;14.536;2023-04-15T08:32:16;0.70;;;0.65;;
42846;SDS011;28495;49.916;14.536;2023-04-15T08:37:36;0.90;;;0.80;;
42846;SDS011;28495;49.916;14.536;2023-04-15T08:42:57;2.65;;;1.50;;
42846;SDS011;28495;49.916;14.536;2023-04-15T08:48:20;1.83;;;1.30;;
42846;SDS011;28495;49.916;14.536;2023-04-15T08:53:44;1.30;;;1.20;;
42846;SDS011;28495;49.916;14.536;2023-04-15T08:59:06;2.75;;;1.10;;
42846;SDS011;28495;49.916;14.536;2023-04-15T09:04:29;1.80;;;1.05;;
42846;SDS011;28495;49.916;14.536;2023-04-15T09:09:50;1.65;;;1.55;;
42846;SDS011;28495;49.916;14.536;2023-04-15T09:15:12;0.80;;;0.80;;
42846;SDS011;28495;49.916;14.536;2023-04-15T09:20:40;3.25;;;2.33;;
42846;SDS011;28495;49.916;14.536;2023-04-15T09:26:02;2.20;;;1.73;;
42846;SDS011;28495;49.916;14.536;2023-04-15T09:31:28;3.17;;;1.83;;
42846;SDS011;28495;49.916;14.536;2023-04-15T09:36:51;1.70;;;1.15;;
42846;SDS011;28495;49.916;14.536;2023-04-15T09:42:14;1.83;;;1.17;;
42846;SDS011;28495;49.916;14.536;2023-04-15T09:47:36;1.98;;;1.75;;
42846;SDS011;28495;49.916;14.536;2023-04-15T09:52:57;2.00;;;1.15;;
42846;SDS011;28495;49.916;14.536;2023-04-15T10:03:40;1.85;;;1.38;;
42846;SDS011;28495;49.916;14.536;2023-04-15T10:09:01;1.67;;;1.10;;
42846;SDS011;28495;49.916;14.536;2023-04-15T10:14:23;1.25;;;1.10;;
42846;SDS011;28495;49.916;14.536;2023-04-15T10:19:45;1.33;;;1.00;;
42846;SDS011;28495;49.916;14.536;2023-04-15T10:25:08;0.60;;;0.60;;
42846;SDS011;28495;49.916;14.536;2023-04-15T10:30:31;1.92;;;1.60;;
42846;SDS011;28495;49.916;14.536;2023-04-15T10:35:54;2.92;;;2.17;;
42846;SDS011;28495;49.916;14.536;2023-04-15T10:46:42;2.25;;;1.08;;
42846;SDS011;28495;49.916;14.536;2023-04-15T10:52:04;1.83;;;1.30;;
42846;SDS011;28495;49.916;14.536;2023-04-15T10:57:32;1.13;;;1.00;;
42846;SDS011;28495;49.916;14.536;2023-04-15T11:03:04;2.63;;;1.73;;
42846;SDS011;28495;49.916;14.536;2023-04-15T11:14:33;1.65;;;1.15;;
42846;SDS011;28495;49.916;14.536;2023-04-15T11:19:55;1.10;;;1.00;;
42846;SDS011;28495;49.916;14.536;2023-04-15T11:25:24;1.13;;;1.02;;
42846;SDS011;28495;49.916;14.536;2023-04-15T11:30:46;4.15;;;2.53;;
42846;SDS011;28495;49.916;14.536;2023-04-15T11:36:07;4.63;;;3.80;;
42846;SDS011;28495;49.916;14.536;2023-04-15T11:41:30;1.80;;;1.52;;
42846;SDS011;28495;49.916;14.536;2023-04-15T11:46:51;2.67;;;2.00;;
42846;SDS011;28495;49.916;14.536;2023-04-15T11:52:11;1.48;;;1.13;;
42846;SDS011;28495;49.916;14.536;2023-04-15T11:57:33;1.35;;;1.25;;
42846;SDS011;28495;49.916;14.536;2023-04-15T12:03:10;2.30;;;1.60;;
42846;SDS011;28495;49.916;14.536;2023-04-15T12:14:24;1.55;;;1.30;;
42846;SDS011;28495;49.916;14.536;2023-04-15T12:19:47;1.30;;;1.20;;
42846;SDS011;28495;49.916;14.536;2023-04-15T12:25:09;0.73;;;0.73;;
42846;SDS011;28495;49.916;14.536;2023-04-15T12:30:31;2.17;;;1.65;;
42846;SDS011;28495;49.916;14.536;2023-04-15T12:35:52;1.75;;;1.20;;
42846;SDS011;28495;49.916;14.536;2023-04-15T12:41:13;0.90;;;0.77;;
42846;SDS011;28495;49.916;14.536;2023-04-15T12:46:33;3.55;;;1.98;;
42846;SDS011;28495;49.916;14.536;2023-04-15T12:51:54;1.80;;;1.40;;
42846;SDS011;28495;49.916;14.536;2023-04-15T12:57:16;1.25;;;1.15;;
42846;SDS011;28495;49.916;14.536;2023-04-15T13:02:37;1.67;;;1.20;;
42846;SDS011;28495;49.916;14.536;2023-04-15T13:07:58;1.75;;;1.17;;
42846;SDS011;28495;49.916;14.536;2023-04-15T13:13:19;1.20;;;1.10;;
42846;SDS011;28495;49.916;14.536;2023-04-15T13:18:40;6.13;;;3.60;;
42846;SDS011;28495;49.916;14.536;2023-04-15T13:24:01;1.35;;;1.25;;
42846;SDS011;28495;49.916;14.536;2023-04-15T13:29:23;1.10;;;1.00;;
42846;SDS011;28495;49.916;14.536;2023-04-15T13:34:44;1.13;;;1.02;;
42846;SDS011;28495;49.916;14.536;2023-04-15T13:40:04;1.45;;;1.00;;
42846;SDS011;28495;49.916;14.536;2023-04-15T13:45:27;0.90;;;0.90;;
42846;SDS011;28495;49.916;14.536;2023-04-15T13:50:48;0.93;;;0.93;;
42846;SDS011;28495;49.916;14.536;2023-04-15T13:56:08;2.03;;;1.30;;
42846;SDS011;28495;49.916;14.536;2023-04-15T14:01:29;1.50;;;1.38;;
42846;SDS011;28495;49.916;14.536;2023-04-15T14:06:50;2.60;;;2.15;;
42846;SDS011;28495;49.916;14.536;2023-04-15T14:12:11;1.63;;;1.30;;
42846;SDS011;28495;49.916;14.536;2023-04-15T14:17:32;5.07;;;3.20;;
42846;SDS011;28495;49.916;14.536;2023-04-15T14:22:53;5.55;;;3.00;;
42846;SDS011;28495;49.916;14.536;2023-04-15T14:28:14;3.28;;;2.63;;
42846;SDS011;28495;49.916;14.536;2023-04-15T14:33:35;2.60;;;1.50;;
42846;SDS011;28495;49.916;14.536;2023-04-15T14:38:55;3.47;;;2.00;;
42846;SDS011;28495;49.916;14.536;2023-04-15T14:44:17;1.55;;;1.45;;
42846;SDS011;28495;49.916;14.536;2023-04-15T14:49:37;1.85;;;1.58;;
42846;SDS011;28495;49.916;14.536;2023-04-15T14:54:58;2.42;;;1.50;;
42846;SDS011;28495;49.916;14.536;2023-04-15T15:00:19;1.35;;;1.20;;
42846;SDS011;28495;49.916;14.536;2023-04-15T15:05:40;4.85;;;2.35;;
42846;SDS011;28495;49.916;14.536;2023-04-15T15:11:02;1.58;;;1.48;;
42846;SDS011;28495;49.916;14.536;2023-04-15T15:16:23;1.33;;;1.23;;
42846;SDS011;28495;49.916;14.536;2023-04-15T15:21:44;1.65;;;1.20;;
42846;SDS011;28495;49.916;14.536;2023-04-15T15:27:06;2.03;;;1.38;;
42846;SDS011;28495;49.916;14.536;2023-04-15T15:32:27;1.60;;;1.50;;
42846;SDS011;28495;49.916;14.536;2023-04-15T15:37:48;1.58;;;1.48;;
42846;SDS011;28495;49.916;14.536;2023-04-15T15:43:08;2.75;;;1.90;;
42846;SDS011;28495;49.916;14.536;2023-04-15T15:48:30;1.98;;;1.88;;
42846;SDS011;28495;49.916;14.536;2023-04-15T15:53:51;2.67;;;1.58;;
42846;SDS011;28495;49.916;14.536;2023-04-15T15:59:12;1.42;;;1.33;;
42846;SDS011;28495;49.916;14.536;2023-04-15T16:04:33;1.88;;;1.27;;
42846;SDS011;28495;49.916;14.536;2023-04-15T16:09:54;2.72;;;1.42;;
42846;SDS011;28495;49.916;14.536;2023-04-15T16:15:15;1.75;;;1.40;;
42846;SDS011;28495;49.916;14.536;2023-04-15T16:20:36;1.58;;;1.48;;
42846;SDS011;28495;49.916;14.536;2023-04-15T16:25:58;2.10;;;1.90;;
42846;SDS011;28495;49.916;14.536;2023-04-15T16:31:19;2.03;;;1.60;;
42846;SDS011;28495;49.916;14.536;2023-04-15T16:36:39;2.08;;;1.83;;
42846;SDS011;28495;49.916;14.536;2023-04-15T16:42:01;3.15;;;1.80;;
42846;SDS011;28495;49.916;14.536;2023-04-15T16:47:22;2.95;;;1.95;;
42846;SDS011;28495;49.916;14.536;2023-04-15T16:52:43;2.20;;;2.00;;
42846;SDS011;28495;49.916;14.536;2023-04-15T16:58:04;1.83;;;1.40;;
42846;SDS011;28495;49.916;14.536;2023-04-15T17:03:27;2.17;;;1.70;;
42846;SDS011;28495;49.916;14.536;2023-04-15T17:08:48;2.35;;;1.70;;
42846;SDS011;28495;49.916;14.536;2023-04-15T17:14:11;2.10;;;1.38;;
42846;SDS011;28495;49.916;14.536;2023-04-15T17:19:31;2.10;;;1.40;;
42846;SDS011;28495;49.916;14.536;2023-04-15T17:24:52;5.82;;;1.40;;
42846;SDS011;28495;49.916;14.536;2023-04-15T17:30:13;1.55;;;1.45;;
42846;SDS011;28495;49.916;14.536;2023-04-15T17:35:34;3.63;;;1.80;;
42846;SDS011;28495;49.916;14.536;2023-04-15T17:40:55;4.35;;;2.63;;
42846;SDS011;28495;49.916;14.536;2023-04-15T17:46:16;2.80;;;1.70;;
42846;SDS011;28495;49.916;14.536;2023-04-15T17:51:38;6.05;;;2.65;;
42846;SDS011;28495;49.916;14.536;2023-04-15T17:57:00;3.72;;;3.42;;
42846;SDS011;28495;49.916;14.536;2023-04-15T18:02:22;3.38;;;1.50;;
42846;SDS011;28495;49.916;14.536;2023-04-15T18:07:43;2.40;;;1.40;;
42846;SDS011;28495;49.916;14.536;2023-04-15T18:13:05;1.90;;;1.70;;
42846;SDS011;28495;49.916;14.536;2023-04-15T18:18:26;3.33;;;2.42;;
42846;SDS011;28495;49.916;14.536;2023-04-15T18:23:47;3.25;;;1.70;;
42846;SDS011;28495;49.916;14.536;2023-04-15T18:29:09;4.20;;;2.55;;
42846;SDS011;28495;49.916;14.536;2023-04-15T18:34:30;3.78;;;2.38;;
42846;SDS011;28495;49.916;14.536;2023-04-15T18:39:50;3.92;;;2.72;;
42846;SDS011;28495;49.916;14.536;2023-04-15T18:45:11;4.43;;;2.80;;
42846;SDS011;28495;49.916;14.536;2023-04-15T18:50:32;3.60;;;2.88;;
42846;SDS011;28495;49.916;14.536;2023-04-15T18:55:53;6.60;;;3.42;;
42846;SDS011;28495;49.916;14.536;2023-04-15T19:01:15;4.72;;;3.80;;
42846;SDS011;28495;49.916;14.536;2023-04-15T19:06:36;7.18;;;4.95;;
42846;SDS011;28495;49.916;14.536;2023-04-15T19:11:57;5.72;;;4.25;;
42846;SDS011;28495;49.916;14.536;2023-04-15T19:17:18;7.07;;;4.35;;
42846;SDS011;28495;49.916;14.536;2023-04-15T19:22:39;5.40;;;3.78;;
42846;SDS011;28495;49.916;14.536;2023-04-15T19:28:01;6.90;;;4.93;;
42846;SDS011;28495;49.916;14.536;2023-04-15T19:33:21;7.80;;;4.10;;
42846;SDS011;28495;49.916;14.536;2023-04-15T19:38:42;6.95;;;4.50;;
42846;SDS011;28495;49.916;14.536;2023-04-15T19:44:04;5.75;;;3.95;;
42846;SDS011;28495;49.916;14.536;2023-04-15T19:49:25;5.88;;;4.43;;
42846;SDS011;28495;49.916;14.536;2023-04-15T19:54:46;5.35;;;4.30;;
42846;SDS011;28495;49.916;14.536;2023-04-15T20:00:07;6.65;;;4.85;;
42846;SDS011;28495;49.916;14.536;2023-04-15T20:05:28;6.68;;;4.60;;
42846;SDS011;28495;49.916;14.536;2023-04-15T20:10:50;8.38;;;4.97;;
42846;SDS011;28495;49.916;14.536;2023-04-15T20:16:10;6.35;;;4.63;;
42846;SDS011;28495;49.916;14.536;2023-04-15T20:21:35;6.13;;;5.03;;
42846;SDS011;28495;49.916;14.536;2023-04-15T20:26:57;11.73;;;7.97;;
42846;SDS011;28495;49.916;14.536;2023-04-15T20:32:17;16.75;;;11.55;;
42846;SDS011;28495;49.916;14.536;2023-04-15T20:37:41;9.85;;;7.18;;
42846;SDS011;28495;49.916;14.536;2023-04-15T20:43:03;6.35;;;5.50;;
42846;SDS011;28495;49.916;14.536;2023-04-15T20:48:23;10.65;;;6.72;;
42846;SDS011;28495;49.916;14.536;2023-04-15T20:53:44;7.50;;;6.00;;
42846;SDS011;28495;49.916;14.536;2023-04-15T20:59:05;10.57;;;5.93;;
42846;SDS011;28495;49.916;14.536;2023-04-15T21:04:26;8.02;;;5.85;;
42846;SDS011;28495;49.916;14.536;2023-04-15T21:09:47;7.30;;;5.70;;
42846;SDS011;28495;49.916;14.536;2023-04-15T21:15:08;10.93;;;7.25;;
42846;SDS011;28495;49.916;14.536;2023-04-15T21:20:29;12.60;;;8.13;;
42846;SDS011;28495;49.916;14.536;2023-04-15T21:25:50;10.65;;;7.53;;
42846;SDS011;28495;49.916;14.536;2023-04-15T21:31:11;9.38;;;7.28;;
42846;SDS011;28495;49.916;14.536;2023-04-15T21:36:31;8.25;;;6.22;;
42846;SDS011;28495;49.916;14.536;2023-04-15T21:41:53;8.38;;;6.70;;
42846;SDS011;28495;49.916;14.536;2023-04-15T21:47:14;9.23;;;6.50;;
42846;SDS011;28495;49.916;14.536;2023-04-15T21:52:35;8.23;;;6.60;;
42846;SDS011;28495;49.916;14.536;2023-04-15T21:57:56;10.63;;;6.68;;
42846;SDS011;28495;49.916;14.536;2023-04-15T22:03:17;8.68;;;6.30;;
42846;SDS011;28495;49.916;14.536;2023-04-15T22:08:38;10.65;;;6.93;;
42846;SDS011;28495;49.916;14.536;2023-04-15T22:14:16;10.15;;;6.75;;
42846;SDS011;28495;49.916;14.536;2023-04-15T22:19:36;7.45;;;6.22;;
42846;SDS011;28495;49.916;14.536;2023-04-15T22:24:57;7.18;;;6.28;;
42846;SDS011;28495;49.916;14.536;2023-04-15T22:30:18;7.63;;;5.05;;
42846;SDS011;28495;49.916;14.536;2023-04-15T22:35:38;7.88;;;6.28;;
42846;SDS011;28495;49.916;14.536;2023-04-15T22:40:59;7.70;;;6.03;;
42846;SDS011;28495;49.916;14.536;2023-04-15T22:46:20;7.95;;;5.90;;
42846;SDS011;28495;49.916;14.536;2023-04-15T22:51:42;8.20;;;5.95;;
42846;SDS011;28495;49.916;14.536;2023-04-15T22:57:03;7.72;;;6.05;;
42846;SDS011;28495;49.916;14.536;2023-04-15T23:02:24;6.88;;;5.68;;
42846;SDS011;28495;49.916;14.536;2023-04-15T23:07:44;8.77;;;6.78;;
42846;SDS011;28495;49.916;14.536;2023-04-15T23:13:06;9.38;;;6.65;;
42846;SDS011;28495;49.916;14.536;2023-04-15T23:18:26;8.15;;;6.20;;
42846;SDS011;28495;49.916;14.536;2023-04-15T23:23:48;8.65;;;6.45;;
42846;SDS011;28495;49.916;14.536;2023-04-15T23:29:08;9.80;;;6.50;;
42846;SDS011;28495;49.916;14.536;2023-04-15T23:34:30;7.38;;;5.68;;
42846;SDS011;28495;49.916;14.536;2023-04-15T23:39:50;8.48;;;6.05;;
42846;SDS011;28495;49.916;14.536;2023-04-15T23:45:11;8.50;;;6.50;;
42846;SDS011;28495;49.916;14.536;2023-04-15T23:50:32;8.10;;;6.45;;
42846;SDS011;28495;49.916;14.536;2023-04-15T23:55:53;9.52;;;6.55;;
